03/26 16:00 更新

3,000ftに雲が少し

地上風: 050°7kt
(010°~ 080°で変動)

上空風(熊谷ウインドプロファイラ)
13,000ft: 320°26kt
10,000ft: 290°36kt
 7,000ft: 340°25kt
 3,000ft: 320°13kt

地上: 16℃
上空: -14.9℃

日没: 17:57

NOAA(アメリカ海洋大気庁)
高度(ft)風向(度)風速(kt)気温(℃)
1300029329-14
1200029628-12
1100029927-10
1000030526-8
900031424-6
800032623-4
700033722-1
6000348211
5000351193
4000350165
3000346117
2000350510
10003312
022215


実況天気図


予想天気図


RJTJ 260700Z 05007KT 010V080 9999 FEW030 16/00 Q1005 RMK 1CU030 A2970=

GPV気象予報
気象庁
日本気象協会

玉淀ダム放流量(1,000m3/sを超えた7時間後にDZ冠水)
太郎衛門橋テレメータ水位(11mでDZ冠水)

skydive.jp